Sheldon, IA

3:05 AM CDT on March 30, 2017 (GMT -0500)
Sheldon Municipal

Weather History for KSHL - March, 2013

Change the Weather History Date:

Sunday, March 31, 2013

  Actual Average Record
Temperature  
Mean Temperature 32 °F -  
Max Temperature 41 °F 53 °F 82 °F (1978)
Min Temperature 24 °F 29 °F 10 °F (1969)
Degree Days  
Heating Degree Days 32    
Moisture  
Dew Point 28 °F    
Average Humidity 80    
Maximum Humidity 100    
Minimum Humidity 52    
Precipitation  
Precipitation 0.00 in - - ()
Sea Level Pressure  
Sea Level Pressure 29.98 in    
Wind  
Wind Speed 12 mph (NW)    
Max Wind Speed 23 mph    
Max Gust Speed 30 mph    
Visibility 7 miles    
Events Rain    
Averages and records for this station are not official NWS values.
T = Trace of Precipitation, MM = Missing Value Source: NWS Daily Summary

Daily Weather History Graph

Daily Weather History Graph

Search for Another Location

Airport or City:

Trip Planner

Search our weather history database for the weather conditions in past years. The results will help you decide how hot, cold, wet, or windy it might be!

Date:

Astronomy

Mar. 31, 2013 Rise Set
Actual Time 7:06 AM CDT 7:48 PM CDT
Civil Twilight 6:37 AM CDT 8:17 PM CDT
Nautical Twilight 6:03 AM CDT 8:51 PM CDT
Astronomical Twilight 5:28 AM CDT 9:27 PM CDT
Moon 12:02 AM CDT (3/31) 9:48 AM CDT (3/31)
Length of Visible Light 13h 39m
Length of Day
12h 42m
Waning Gibbous, 77% of the Moon is Illuminated
Mar 31
Waning Gibbous
Apr 2
Last Quarter
Apr 10
New
Apr 18
First Quarter
Apr 25
Full

Hourly Weather History & Observations

Time (CDT) Temp. Windchill Dew Point Humidity Pressure Visibility Wind Dir Wind Speed Gust Speed Precip Events Conditions
12:15 AM 33.8 °F 28.6 °F 33.8 °F 100% 29.93 in 1.8 mi NW 5.8 mph - N/A   Light Drizzle
12:35 AM 33.8 °F 28.6 °F 33.8 °F 100% 29.93 in 2.0 mi NW 5.8 mph - N/A   Light Drizzle
12:55 AM 33.8 °F 30.8 °F 33.8 °F 100% 29.92 in 0.5 mi West 3.5 mph - N/A   Light Drizzle
1:15 AM 32.0 °F 25.6 °F 32.0 °F 100% 29.92 in 0.2 mi WNW 6.9 mph - N/A   Light Drizzle
1:35 AM 32.0 °F 24.2 °F 32.0 °F 100% 29.93 in 0.2 mi NW 9.2 mph - N/A   Drizzle
1:55 AM 32.0 °F 24.2 °F 32.0 °F 100% 29.93 in 0.2 mi NW 9.2 mph - N/A   Light Drizzle
2:15 AM 32.0 °F 23.6 °F 32.0 °F 100% 29.95 in 0.2 mi NW 10.4 mph 17.3 mph N/A   Light Drizzle
2:35 AM 32.0 °F 23.6 °F 32.0 °F 100% 29.95 in 0.2 mi NW 10.4 mph - N/A   Light Drizzle
2:55 AM 33.8 °F 24.3 °F 33.8 °F 100% 29.95 in 0.2 mi NW 13.8 mph - N/A   Light Drizzle
3:15 AM 33.8 °F 25.8 °F 33.8 °F 100% 29.95 in 1.2 mi NW 10.4 mph - N/A   Light Drizzle
3:35 AM 33.8 °F 26.4 °F 33.8 °F 100% 29.94 in 2.5 mi NW 9.2 mph - N/A   Light Drizzle
3:55 AM 33.8 °F 27.7 °F 33.8 °F 100% 29.93 in 2.5 mi WNW 6.9 mph - N/A   Light Drizzle
4:15 AM 33.8 °F 25.8 °F 33.8 °F 100% 29.92 in 3.0 mi NW 10.4 mph - N/A   Light Drizzle
4:35 AM 33.8 °F 26.4 °F 33.8 °F 100% 29.91 in 4.0 mi WNW 9.2 mph - N/A   Light Drizzle
4:55 AM 33.8 °F 27.0 °F 33.8 °F 100% 29.91 in 4.0 mi WNW 8.1 mph - N/A   Light Drizzle
5:15 AM 32.0 °F 25.6 °F 32.0 °F 100% 29.91 in 4.0 mi West 6.9 mph - N/A   Light Drizzle
5:35 AM 33.8 °F 27.0 °F 33.8 °F 100% 29.91 in 5.0 mi West 8.1 mph - N/A   Light Drizzle
5:55 AM 32.0 °F 23.6 °F 32.0 °F 100% 29.92 in 4.0 mi West 10.4 mph - N/A   Light Drizzle
6:15 AM 32.0 °F 24.2 °F 32.0 °F 100% 29.91 in 5.0 mi West 9.2 mph - N/A   Light Drizzle
6:35 AM 32.0 °F 24.8 °F 32.0 °F 100% 29.92 in 5.0 mi West 8.1 mph - N/A   Light Drizzle
6:55 AM 32.0 °F 24.8 °F 32.0 °F 100% 29.91 in 4.0 mi West 8.1 mph - N/A   Light Drizzle
7:15 AM 32.0 °F 23.6 °F 32.0 °F 100% 29.91 in 4.0 mi West 10.4 mph - N/A   Light Drizzle
7:35 AM 32.0 °F 23.0 °F 32.0 °F 100% 29.91 in 4.0 mi WNW 11.5 mph - N/A   Light Drizzle
7:55 AM 33.8 °F 24.8 °F 33.8 °F 100% 29.92 in 4.0 mi WNW 12.7 mph - N/A   Light Drizzle
8:15 AM 33.8 °F 24.3 °F 33.8 °F 100% 29.92 in 4.0 mi WNW 13.8 mph - N/A   Clear
8:35 AM 33.8 °F 23.9 °F 33.8 °F 100% 29.93 in 1.2 mi WNW 15.0 mph - N/A   Mostly Cloudy
8:55 AM 35.6 °F 26.2 °F 35.6 °F 100% 29.93 in 4.0 mi WNW 15.0 mph - N/A   Scattered Clouds
9:15 AM 35.6 °F 25.2 °F 35.6 °F 100% 29.94 in 6.0 mi NW 18.4 mph 24.2 mph N/A   Clear
9:35 AM 37.4 °F 26.9 °F 33.8 °F 87% 29.94 in 9.0 mi WNW 20.7 mph 27.6 mph N/A   Partly Cloudy
9:55 AM 37.4 °F 27.2 °F 32.0 °F 81% 29.95 in 9.0 mi NNW 19.6 mph 29.9 mph N/A   Mostly Cloudy
10:15 AM 37.4 °F 26.4 °F 32.0 °F 81% 29.96 in 9.0 mi NW 23.0 mph 28.8 mph N/A   Overcast
10:35 AM 37.4 °F 26.4 °F 32.0 °F 81% 29.95 in 9.0 mi NNW 23.0 mph - N/A   Mostly Cloudy
10:55 AM 37.4 °F 27.2 °F 32.0 °F 81% 29.97 in 10.0 mi NNW 19.6 mph 27.6 mph N/A   Mostly Cloudy
11:15 AM 37.4 °F 26.9 °F 30.2 °F 75% 29.98 in 10.0 mi NNW 20.7 mph 28.8 mph N/A   Mostly Cloudy
11:35 AM 39.2 °F 29.0 °F 30.2 °F 70% 29.97 in 10.0 mi NNW 21.9 mph 27.6 mph N/A   Scattered Clouds
11:55 AM 39.2 °F 29.0 °F 28.4 °F 65% 29.98 in 10.0 mi NNW 21.9 mph - N/A   Mostly Cloudy
12:15 PM 39.2 °F 29.6 °F 28.4 °F 65% 29.98 in 10.0 mi North 19.6 mph 29.9 mph N/A   Scattered Clouds
12:35 PM 39.2 °F 28.7 °F 28.4 °F 65% 29.98 in 10.0 mi NW 23.0 mph 29.9 mph N/A   Scattered Clouds
12:55 PM 39.2 °F 29.3 °F 28.4 °F 65% 29.98 in 10.0 mi NNW 20.7 mph - N/A   Scattered Clouds
1:15 PM 41.0 °F 31.9 °F 28.4 °F 61% 29.98 in - NW 19.6 mph 27.6 mph N/A   Scattered Clouds
1:35 PM 41.0 °F 32.2 °F 28.4 °F 61% 29.98 in 10.0 mi NNW 18.4 mph 26.5 mph N/A   Mostly Cloudy
1:55 PM 39.2 °F 29.6 °F 28.4 °F 65% 29.98 in 10.0 mi North 19.6 mph 26.5 mph N/A   Mostly Cloudy
2:15 PM 39.2 °F 29.0 °F 28.4 °F 65% 29.98 in 10.0 mi NNW 21.9 mph - N/A   Mostly Cloudy
2:35 PM 41.0 °F 32.2 °F 28.4 °F 61% 29.99 in 10.0 mi NNW 18.4 mph 26.5 mph N/A   Scattered Clouds
2:55 PM 39.2 °F 29.3 °F 28.4 °F 65% 29.98 in 10.0 mi North 20.7 mph 27.6 mph N/A   Mostly Cloudy
3:15 PM 39.2 °F 29.8 °F 26.6 °F 61% 29.98 in 10.0 mi NNW 18.4 mph 24.2 mph N/A   Scattered Clouds
3:35 PM 41.0 °F 31.4 °F 26.6 °F 57% 29.98 in 10.0 mi NNW 21.9 mph - N/A   Scattered Clouds
3:55 PM 41.0 °F 33.1 °F 26.6 °F 57% 29.98 in 10.0 mi NNW 15.0 mph 26.5 mph N/A   Partly Cloudy
4:15 PM 41.0 °F 32.8 °F 26.6 °F 57% 29.98 in 10.0 mi NNW 16.1 mph 24.2 mph N/A   Scattered Clouds
4:35 PM 41.0 °F 32.2 °F 26.6 °F 57% 29.99 in 10.0 mi NNW 18.4 mph - N/A   Mostly Cloudy
4:55 PM 39.2 °F 29.6 °F 24.8 °F 56% 29.99 in 10.0 mi North 19.6 mph 27.6 mph N/A   Overcast
5:15 PM 39.2 °F 29.6 °F 24.8 °F 56% 29.99 in 10.0 mi NNW 19.6 mph 27.6 mph N/A   Mostly Cloudy
5:35 PM 37.4 °F 27.2 °F 21.2 °F 52% 30.00 in 10.0 mi North 19.6 mph - N/A   Mostly Cloudy
5:55 PM 35.6 °F 25.5 °F 24.8 °F 65% 30.01 in 9.0 mi NNW 17.3 mph 23.0 mph N/A Rain Light Rain
6:15 PM 35.6 °F 26.2 °F 24.8 °F 65% 30.02 in 9.0 mi NNW 15.0 mph 23.0 mph N/A   Light Drizzle
6:35 PM 33.8 °F 23.2 °F 21.2 °F 60% 30.03 in 8.0 mi North 17.3 mph - N/A   Light Drizzle
6:55 PM 33.8 °F 23.2 °F 21.2 °F 60% 30.04 in 9.0 mi NNW 17.3 mph 23.0 mph N/A   Light Drizzle
7:15 PM 32.0 °F 20.1 °F 17.6 °F 55% 30.04 in 10.0 mi NNW 19.6 mph - N/A Rain Light Rain
7:35 PM 32.0 °F 21.2 °F 19.4 °F 60% 30.06 in 10.0 mi NNW 16.1 mph 21.9 mph N/A   Overcast
7:55 PM 32.0 °F 20.1 °F 19.4 °F 60% 30.06 in 10.0 mi North 19.6 mph - N/A   Overcast
8:15 PM 32.0 °F 21.2 °F 19.4 °F 60% 30.07 in 10.0 mi North 16.1 mph 23.0 mph N/A   Overcast
8:35 PM 30.2 °F 18.9 °F 19.4 °F 64% 30.09 in 10.0 mi North 16.1 mph - N/A   Overcast
9:15 PM 28.4 °F 18.5 °F 19.4 °F 69% 30.11 in 10.0 mi North 11.5 mph - N/A   Mostly Cloudy
9:35 PM 28.4 °F 18.0 °F 19.4 °F 69% 30.12 in 10.0 mi NNW 12.7 mph - N/A   Partly Cloudy
10:15 PM 26.6 °F 15.2 °F 19.4 °F 74% 30.14 in 10.0 mi North 13.8 mph 19.6 mph N/A   Scattered Clouds
10:35 PM 26.6 °F 16.2 °F 19.4 °F 74% 30.14 in 10.0 mi North 11.5 mph - N/A   Clear
10:55 PM 24.8 °F 15.3 °F 19.4 °F 80% 30.15 in 10.0 mi NNW 9.2 mph - N/A   Clear
11:15 PM 24.8 °F 12.4 °F 17.6 °F 74% 30.15 in 10.0 mi NNW 15.0 mph - N/A   Clear
11:35 PM 24.8 °F 12.9 °F 17.6 °F 74% 30.15 in 10.0 mi North 13.8 mph - N/A   Clear
11:55 PM 24.8 °F 11.5 °F 17.6 °F 74% 30.16 in 10.0 mi North 17.3 mph - N/A   Clear